sensor_id;sensor_type;location;lat;lon;timestamp;temperature;humidity
84902;DHT22;75166;51.198;6.010;2024-01-30T00:01:13;8.60;78.50
84902;DHT22;75166;51.198;6.010;2024-01-30T00:03:39;8.70;78.70
84902;DHT22;75166;51.198;6.010;2024-01-30T00:06:04;8.60;78.60
84902;DHT22;75166;51.198;6.010;2024-01-30T00:08:30;8.60;78.70
84902;DHT22;75166;51.198;6.010;2024-01-30T00:10:56;8.60;78.70
84902;DHT22;75166;51.198;6.010;2024-01-30T00:13:21;8.60;79.70
84902;DHT22;75166;51.198;6.010;2024-01-30T00:15:48;8.60;78.90
84902;DHT22;75166;51.198;6.010;2024-01-30T00:18:14;8.60;79.00
84902;DHT22;75166;51.198;6.010;2024-01-30T00:20:40;8.60;79.00
84902;DHT22;75166;51.198;6.010;2024-01-30T00:23:05;8.60;79.00
84902;DHT22;75166;51.198;6.010;2024-01-30T00:25:31;8.70;79.00
84902;DHT22;75166;51.198;6.010;2024-01-30T00:27:58;8.60;79.00
84902;DHT22;75166;51.198;6.010;2024-01-30T00:30:24;8.60;79.90
84902;DHT22;75166;51.198;6.010;2024-01-30T00:32:50;8.60;79.10
84902;DHT22;75166;51.198;6.010;2024-01-30T00:35:15;8.60;79.20
84902;DHT22;75166;51.198;6.010;2024-01-30T00:37:41;8.60;79.20
84902;DHT22;75166;51.198;6.010;2024-01-30T00:40:07;8.50;79.20
84902;DHT22;75166;51.198;6.010;2024-01-30T00:42:33;8.60;79.20
84902;DHT22;75166;51.198;6.010;2024-01-30T00:44:59;8.60;79.20
84902;DHT22;75166;51.198;6.010;2024-01-30T00:47:24;8.60;79.20
84902;DHT22;75166;51.198;6.010;2024-01-30T00:49:50;8.60;79.10
84902;DHT22;75166;51.198;6.010;2024-01-30T00:52:15;8.60;79.10
84902;DHT22;75166;51.198;6.010;2024-01-30T00:54:41;8.60;79.20
84902;DHT22;75166;51.198;6.010;2024-01-30T00:57:07;8.50;79.20
84902;DHT22;75166;51.198;6.010;2024-01-30T00:59:33;8.50;79.20
84902;DHT22;75166;51.198;6.010;2024-01-30T01:01:58;8.50;79.20
84902;DHT22;75166;51.198;6.010;2024-01-30T01:04:24;8.50;79.20
84902;DHT22;75166;51.198;6.010;2024-01-30T01:06:51;8.60;79.30
84902;DHT22;75166;51.198;6.010;2024-01-30T01:09:16;8.50;79.00
84902;DHT22;75166;51.198;6.010;2024-01-30T01:11:42;8.50;79.00
84902;DHT22;75166;51.198;6.010;2024-01-30T01:14:08;8.50;79.00
84902;DHT22;75166;51.198;6.010;2024-01-30T01:16:33;8.50;79.00
84902;DHT22;75166;51.198;6.010;2024-01-30T01:18:59;8.50;79.10
84902;DHT22;75166;51.198;6.010;2024-01-30T01:21:25;8.50;79.10
84902;DHT22;75166;51.198;6.010;2024-01-30T01:23:51;8.50;79.20
84902;DHT22;75166;51.198;6.010;2024-01-30T01:26:16;8.50;79.20
84902;DHT22;75166;51.198;6.010;2024-01-30T01:28:42;8.50;79.20
84902;DHT22;75166;51.198;6.010;2024-01-30T01:31:08;8.50;79.10
84902;DHT22;75166;51.198;6.010;2024-01-30T01:33:34;8.50;79.00
84902;DHT22;75166;51.198;6.010;2024-01-30T01:36:01;8.50;79.00
84902;DHT22;75166;51.198;6.010;2024-01-30T01:38:28;8.50;79.00
84902;DHT22;75166;51.198;6.010;2024-01-30T01:40:54;8.50;79.00
84902;DHT22;75166;51.198;6.010;2024-01-30T01:43:19;8.50;79.10
84902;DHT22;75166;51.198;6.010;2024-01-30T01:45:45;8.50;79.10
84902;DHT22;75166;51.198;6.010;2024-01-30T01:48:11;8.50;79.20
84902;DHT22;75166;51.198;6.010;2024-01-30T01:50:38;8.50;79.20
84902;DHT22;75166;51.198;6.010;2024-01-30T01:53:05;8.50;79.20
84902;DHT22;75166;51.198;6.010;2024-01-30T01:55:32;8.50;79.20
84902;DHT22;75166;51.198;6.010;2024-01-30T01:57:57;8.50;79.10
84902;DHT22;75166;51.198;6.010;2024-01-30T02:00:23;8.50;79.00
84902;DHT22;75166;51.198;6.010;2024-01-30T02:02:50;8.50;79.00
84902;DHT22;75166;51.198;6.010;2024-01-30T02:05:16;8.50;79.00
84902;DHT22;75166;51.198;6.010;2024-01-30T02:07:43;8.50;79.10
84902;DHT22;75166;51.198;6.010;2024-01-30T02:10:09;8.50;79.10
84902;DHT22;75166;51.198;6.010;2024-01-30T02:12:37;8.50;80.00
84902;DHT22;75166;51.198;6.010;2024-01-30T02:15:04;8.50;79.20
84902;DHT22;75166;51.198;6.010;2024-01-30T02:17:30;8.50;79.10
84902;DHT22;75166;51.198;6.010;2024-01-30T02:19:56;8.50;79.10
84902;DHT22;75166;51.198;6.010;2024-01-30T02:22:22;8.50;79.10
84902;DHT22;75166;51.198;6.010;2024-01-30T02:24:49;8.50;79.20
84902;DHT22;75166;51.198;6.010;2024-01-30T02:27:14;8.50;79.20
84902;DHT22;75166;51.198;6.010;2024-01-30T02:29:40;8.50;79.20
84902;DHT22;75166;51.198;6.010;2024-01-30T02:32:06;8.40;79.20
84902;DHT22;75166;51.198;6.010;2024-01-30T02:34:33;8.40;79.30
84902;DHT22;75166;51.198;6.010;2024-01-30T02:36:58;8.50;79.40
84902;DHT22;75166;51.198;6.010;2024-01-30T02:39:24;8.50;79.30
84902;DHT22;75166;51.198;6.010;2024-01-30T02:41:50;8.50;79.30
84902;DHT22;75166;51.198;6.010;2024-01-30T02:44:15;8.50;79.30
84902;DHT22;75166;51.198;6.010;2024-01-30T02:46:41;8.50;79.20
84902;DHT22;75166;51.198;6.010;2024-01-30T02:49:06;8.50;79.30
84902;DHT22;75166;51.198;6.010;2024-01-30T02:51:32;8.50;79.30
84902;DHT22;75166;51.198;6.010;2024-01-30T02:53:58;8.50;79.40
84902;DHT22;75166;51.198;6.010;2024-01-30T02:56:23;8.50;79.40
84902;DHT22;75166;51.198;6.010;2024-01-30T02:58:49;8.50;79.50
84902;DHT22;75166;51.198;6.010;2024-01-30T03:01:14;8.40;79.40
84902;DHT22;75166;51.198;6.010;2024-01-30T03:03:40;8.40;79.40
84902;DHT22;75166;51.198;6.010;2024-01-30T03:06:06;8.50;79.50
84902;DHT22;75166;51.198;6.010;2024-01-30T03:08:32;8.50;79.50
84902;DHT22;75166;51.198;6.010;2024-01-30T03:10:58;8.50;79.40
84902;DHT22;75166;51.198;6.010;2024-01-30T03:13:23;8.50;79.40
84902;DHT22;75166;51.198;6.010;2024-01-30T03:15:50;8.50;79.40
84902;DHT22;75166;51.198;6.010;2024-01-30T03:18:16;8.50;79.60
84902;DHT22;75166;51.198;6.010;2024-01-30T03:20:41;8.50;79.60
84902;DHT22;75166;51.198;6.010;2024-01-30T03:23:07;8.40;79.60
84902;DHT22;75166;51.198;6.010;2024-01-30T03:25:33;8.50;79.70
84902;DHT22;75166;51.198;6.010;2024-01-30T03:27:58;8.40;79.60
84902;DHT22;75166;51.198;6.010;2024-01-30T03:30:24;8.50;79.70
84902;DHT22;75166;51.198;6.010;2024-01-30T03:32:49;8.50;79.70
84902;DHT22;75166;51.198;6.010;2024-01-30T03:35:15;8.50;79.60
84902;DHT22;75166;51.198;6.010;2024-01-30T03:37:41;8.50;79.60
84902;DHT22;75166;51.198;6.010;2024-01-30T03:40:08;8.50;79.60
84902;DHT22;75166;51.198;6.010;2024-01-30T03:42:34;8.50;79.70
84902;DHT22;75166;51.198;6.010;2024-01-30T03:44:59;8.50;79.70
84902;DHT22;75166;51.198;6.010;2024-01-30T03:47:25;8.40;79.60
84902;DHT22;75166;51.198;6.010;2024-01-30T03:49:51;8.50;79.70
84902;DHT22;75166;51.198;6.010;2024-01-30T03:52:17;8.50;79.60
84902;DHT22;75166;51.198;6.010;2024-01-30T03:54:42;8.50;79.60
84902;DHT22;75166;51.198;6.010;2024-01-30T03:57:08;8.50;79.50
84902;DHT22;75166;51.198;6.010;2024-01-30T03:59:33;8.50;79.50
84902;DHT22;75166;51.198;6.010;2024-01-30T04:01:59;8.50;79.40
84902;DHT22;75166;51.198;6.010;2024-01-30T04:04:25;8.50;79.50
84902;DHT22;75166;51.198;6.010;2024-01-30T04:06:51;8.50;79.50
84902;DHT22;75166;51.198;6.010;2024-01-30T04:09:16;8.50;79.50
84902;DHT22;75166;51.198;6.010;2024-01-30T04:11:42;8.40;79.40
84902;DHT22;75166;51.198;6.010;2024-01-30T04:14:08;8.50;79.50
84902;DHT22;75166;51.198;6.010;2024-01-30T04:16:34;8.50;79.50
84902;DHT22;75166;51.198;6.010;2024-01-30T04:19:00;8.50;79.50
84902;DHT22;75166;51.198;6.010;2024-01-30T04:21:25;8.50;79.50
84902;DHT22;75166;51.198;6.010;2024-01-30T04:23:51;8.50;79.40
84902;DHT22;75166;51.198;6.010;2024-01-30T04:26:17;8.40;79.40
84902;DHT22;75166;51.198;6.010;2024-01-30T04:28:46;8.50;79.50
84902;DHT22;75166;51.198;6.010;2024-01-30T04:31:12;8.40;79.60
84902;DHT22;75166;51.198;6.010;2024-01-30T04:33:37;8.40;79.60
84902;DHT22;75166;51.198;6.010;2024-01-30T04:36:03;8.40;79.60
84902;DHT22;75166;51.198;6.010;2024-01-30T04:38:31;8.40;79.50
84902;DHT22;75166;51.198;6.010;2024-01-30T04:40:56;8.50;79.60
84902;DHT22;75166;51.198;6.010;2024-01-30T04:43:22;8.50;79.60
84902;DHT22;75166;51.198;6.010;2024-01-30T04:45:48;8.50;79.60
84902;DHT22;75166;51.198;6.010;2024-01-30T04:48:14;8.50;79.60
84902;DHT22;75166;51.198;6.010;2024-01-30T04:50:39;8.50;79.60
84902;DHT22;75166;51.198;6.010;2024-01-30T04:53:05;8.50;79.60
84902;DHT22;75166;51.198;6.010;2024-01-30T04:55:31;8.40;79.60
84902;DHT22;75166;51.198;6.010;2024-01-30T04:57:56;8.50;79.70
84902;DHT22;75166;51.198;6.010;2024-01-30T05:00:22;8.40;79.70
84902;DHT22;75166;51.198;6.010;2024-01-30T05:02:47;8.50;79.60
84902;DHT22;75166;51.198;6.010;2024-01-30T05:05:13;8.50;79.60
84902;DHT22;75166;51.198;6.010;2024-01-30T05:07:41;8.50;79.60
84902;DHT22;75166;51.198;6.010;2024-01-30T05:10:06;8.50;79.60
84902;DHT22;75166;51.198;6.010;2024-01-30T05:12:33;8.50;79.60
84902;DHT22;75166;51.198;6.010;2024-01-30T05:14:59;8.50;79.60
84902;DHT22;75166;51.198;6.010;2024-01-30T05:17:25;8.50;79.60
84902;DHT22;75166;51.198;6.010;2024-01-30T05:19:50;8.40;79.60
84902;DHT22;75166;51.198;6.010;2024-01-30T05:22:16;8.40;79.60
84902;DHT22;75166;51.198;6.010;2024-01-30T05:24:44;8.40;79.60
84902;DHT22;75166;51.198;6.010;2024-01-30T05:27:10;8.50;79.60
84902;DHT22;75166;51.198;6.010;2024-01-30T05:29:36;8.50;79.60
84902;DHT22;75166;51.198;6.010;2024-01-30T05:32:02;8.50;79.60
84902;DHT22;75166;51.198;6.010;2024-01-30T05:34:28;8.50;79.60
84902;DHT22;75166;51.198;6.010;2024-01-30T05:36:53;8.50;79.70
84902;DHT22;75166;51.198;6.010;2024-01-30T05:39:19;8.40;79.80
84902;DHT22;75166;51.198;6.010;2024-01-30T05:41:45;8.40;79.70
84902;DHT22;75166;51.198;6.010;2024-01-30T05:44:11;8.40;79.80
84902;DHT22;75166;51.198;6.010;2024-01-30T05:46:36;8.40;79.70
84902;DHT22;75166;51.198;6.010;2024-01-30T05:49:02;8.40;79.70
84902;DHT22;75166;51.198;6.010;2024-01-30T05:51:27;8.40;79.70
84902;DHT22;75166;51.198;6.010;2024-01-30T05:53:53;8.40;79.60
84902;DHT22;75166;51.198;6.010;2024-01-30T05:56:19;8.50;79.70
84902;DHT22;75166;51.198;6.010;2024-01-30T05:58:45;8.50;79.60
84902;DHT22;75166;51.198;6.010;2024-01-30T06:01:10;8.50;79.60
84902;DHT22;75166;51.198;6.010;2024-01-30T06:03:36;8.50;79.70
84902;DHT22;75166;51.198;6.010;2024-01-30T06:06:02;8.40;79.70
84902;DHT22;75166;51.198;6.010;2024-01-30T06:08:28;8.40;79.70
84902;DHT22;75166;51.198;6.010;2024-01-30T06:10:53;8.50;79.70
84902;DHT22;75166;51.198;6.010;2024-01-30T06:13:20;8.50;79.60
84902;DHT22;75166;51.198;6.010;2024-01-30T06:15:45;8.50;79.60
84902;DHT22;75166;51.198;6.010;2024-01-30T06:18:11;8.50;79.60
84902;DHT22;75166;51.198;6.010;2024-01-30T06:20:37;8.50;79.70
84902;DHT22;75166;51.198;6.010;2024-01-30T06:23:03;8.50;79.80
84902;DHT22;75166;51.198;6.010;2024-01-30T06:25:28;8.50;79.90
84902;DHT22;75166;51.198;6.010;2024-01-30T06:27:54;8.50;79.90
84902;DHT22;75166;51.198;6.010;2024-01-30T06:30:20;8.50;80.10
84902;DHT22;75166;51.198;6.010;2024-01-30T06:32:45;8.50;80.00
84902;DHT22;75166;51.198;6.010;2024-01-30T06:35:11;8.50;80.00
84902;DHT22;75166;51.198;6.010;2024-01-30T06:37:37;8.50;80.70
84902;DHT22;75166;51.198;6.010;2024-01-30T06:40:02;8.50;79.90
84902;DHT22;75166;51.198;6.010;2024-01-30T06:42:30;8.50;80.00
84902;DHT22;75166;51.198;6.010;2024-01-30T06:44:55;8.50;80.00
84902;DHT22;75166;51.198;6.010;2024-01-30T06:47:21;8.50;80.00
84902;DHT22;75166;51.198;6.010;2024-01-30T06:49:47;8.50;80.30
84902;DHT22;75166;51.198;6.010;2024-01-30T06:52:12;8.50;80.30
84902;DHT22;75166;51.198;6.010;2024-01-30T06:54:38;8.50;80.40
84902;DHT22;75166;51.198;6.010;2024-01-30T06:57:05;8.50;80.30
84902;DHT22;75166;51.198;6.010;2024-01-30T06:59:34;8.50;80.30
84902;DHT22;75166;51.198;6.010;2024-01-30T07:02:00;8.50;80.50
84902;DHT22;75166;51.198;6.010;2024-01-30T07:04:25;8.50;81.00
84902;DHT22;75166;51.198;6.010;2024-01-30T07:06:51;8.60;82.50
84902;DHT22;75166;51.198;6.010;2024-01-30T07:09:18;8.60;83.30
84902;DHT22;75166;51.198;6.010;2024-01-30T07:11:44;8.60;83.90
84902;DHT22;75166;51.198;6.010;2024-01-30T07:14:10;8.60;84.30
84902;DHT22;75166;51.198;6.010;2024-01-30T07:16:36;8.60;84.50
84902;DHT22;75166;51.198;6.010;2024-01-30T07:19:01;8.60;85.00
84902;DHT22;75166;51.198;6.010;2024-01-30T07:21:27;8.60;85.30
84902;DHT22;75166;51.198;6.010;2024-01-30T07:23:57;8.60;85.30
84902;DHT22;75166;51.198;6.010;2024-01-30T07:26:22;8.60;85.20
84902;DHT22;75166;51.198;6.010;2024-01-30T07:28:48;8.70;85.70
84902;DHT22;75166;51.198;6.010;2024-01-30T07:31:15;8.70;85.90
84902;DHT22;75166;51.198;6.010;2024-01-30T07:33:41;8.70;86.00
84902;DHT22;75166;51.198;6.010;2024-01-30T07:36:06;8.70;86.10
84902;DHT22;75166;51.198;6.010;2024-01-30T07:38:32;8.70;87.30
84902;DHT22;75166;51.198;6.010;2024-01-30T07:40:58;8.70;86.60
84902;DHT22;75166;51.198;6.010;2024-01-30T07:43:24;8.70;86.80
84902;DHT22;75166;51.198;6.010;2024-01-30T07:45:49;8.70;86.70
84902;DHT22;75166;51.198;6.010;2024-01-30T07:48:15;8.80;86.40
84902;DHT22;75166;51.198;6.010;2024-01-30T07:50:40;8.70;86.50
84902;DHT22;75166;51.198;6.010;2024-01-30T07:53:06;8.80;86.60
84902;DHT22;75166;51.198;6.010;2024-01-30T07:55:32;8.80;86.70
84902;DHT22;75166;51.198;6.010;2024-01-30T07:57:58;8.80;87.00
84902;DHT22;75166;51.198;6.010;2024-01-30T08:00:26;8.80;87.00
84902;DHT22;75166;51.198;6.010;2024-01-30T08:02:54;8.80;87.20
84902;DHT22;75166;51.198;6.010;2024-01-30T08:05:21;8.80;87.40
84902;DHT22;75166;51.198;6.010;2024-01-30T08:07:48;8.80;87.10
84902;DHT22;75166;51.198;6.010;2024-01-30T08:10:14;8.80;87.00
84902;DHT22;75166;51.198;6.010;2024-01-30T08:12:40;8.80;86.20
84902;DHT22;75166;51.198;6.010;2024-01-30T08:15:06;8.80;86.10
84902;DHT22;75166;51.198;6.010;2024-01-30T08:17:33;8.80;86.70
84902;DHT22;75166;51.198;6.010;2024-01-30T08:19:58;8.80;87.10
84902;DHT22;75166;51.198;6.010;2024-01-30T08:22:24;8.80;87.20
84902;DHT22;75166;51.198;6.010;2024-01-30T08:24:50;8.80;87.50
84902;DHT22;75166;51.198;6.010;2024-01-30T08:27:15;8.80;87.60
84902;DHT22;75166;51.198;6.010;2024-01-30T08:29:41;8.80;87.60
84902;DHT22;75166;51.198;6.010;2024-01-30T08:32:07;8.90;89.20
84902;DHT22;75166;51.198;6.010;2024-01-30T08:34:33;8.90;88.00
84902;DHT22;75166;51.198;6.010;2024-01-30T08:36:59;8.90;88.10
84902;DHT22;75166;51.198;6.010;2024-01-30T08:39:25;8.90;88.10
84902;DHT22;75166;51.198;6.010;2024-01-30T08:41:50;9.00;88.10
84902;DHT22;75166;51.198;6.010;2024-01-30T08:44:17;9.00;88.10
84902;DHT22;75166;51.198;6.010;2024-01-30T08:46:44;9.00;88.20
84902;DHT22;75166;51.198;6.010;2024-01-30T08:49:11;9.00;88.00
84902;DHT22;75166;51.198;6.010;2024-01-30T08:51:39;9.10;88.30
84902;DHT22;75166;51.198;6.010;2024-01-30T08:54:04;9.10;88.50
84902;DHT22;75166;51.198;6.010;2024-01-30T08:56:30;9.10;88.40
84902;DHT22;75166;51.198;6.010;2024-01-30T08:58:55;9.20;88.50
84902;DHT22;75166;51.198;6.010;2024-01-30T09:01:21;9.20;88.50
84902;DHT22;75166;51.198;6.010;2024-01-30T09:03:46;9.20;88.40
84902;DHT22;75166;51.198;6.010;2024-01-30T09:06:12;9.30;88.60
84902;DHT22;75166;51.198;6.010;2024-01-30T09:08:38;9.30;88.40
84902;DHT22;75166;51.198;6.010;2024-01-30T09:11:14;9.30;88.30
84902;DHT22;75166;51.198;6.010;2024-01-30T09:13:41;9.30;88.40
84902;DHT22;75166;51.198;6.010;2024-01-30T09:16:07;9.30;88.70
84902;DHT22;75166;51.198;6.010;2024-01-30T09:18:33;9.40;89.00
84902;DHT22;75166;51.198;6.010;2024-01-30T09:20:58;9.40;88.60
84902;DHT22;75166;51.198;6.010;2024-01-30T09:23:24;9.40;88.50
84902;DHT22;75166;51.198;6.010;2024-01-30T09:25:50;9.50;88.40
84902;DHT22;75166;51.198;6.010;2024-01-30T09:28:17;9.50;88.30
84902;DHT22;75166;51.198;6.010;2024-01-30T09:30:43;9.50;88.20
84902;DHT22;75166;51.198;6.010;2024-01-30T09:33:08;9.50;88.20
84902;DHT22;75166;51.198;6.010;2024-01-30T09:35:34;9.50;88.00
84902;DHT22;75166;51.198;6.010;2024-01-30T09:38:00;9.60;88.40
84902;DHT22;75166;51.198;6.010;2024-01-30T09:40:26;9.60;88.40
84902;DHT22;75166;51.198;6.010;2024-01-30T09:42:51;9.60;88.40
84902;DHT22;75166;51.198;6.010;2024-01-30T09:45:24;9.60;88.50
84902;DHT22;75166;51.198;6.010;2024-01-30T09:47:50;9.70;88.30
84902;DHT22;75166;51.198;6.010;2024-01-30T09:50:16;9.70;88.10
84902;DHT22;75166;51.198;6.010;2024-01-30T09:52:46;9.70;88.00
84902;DHT22;75166;51.198;6.010;2024-01-30T09:55:12;9.70;88.00
84902;DHT22;75166;51.198;6.010;2024-01-30T09:57:38;9.70;87.90
84902;DHT22;75166;51.198;6.010;2024-01-30T10:00:05;9.80;88.00
84902;DHT22;75166;51.198;6.010;2024-01-30T10:02:34;9.80;88.00
84902;DHT22;75166;51.198;6.010;2024-01-30T10:05:00;9.80;88.10
84902;DHT22;75166;51.198;6.010;2024-01-30T10:07:26;9.80;88.00
84902;DHT22;75166;51.198;6.010;2024-01-30T10:09:52;9.90;87.90
84902;DHT22;75166;51.198;6.010;2024-01-30T10:12:18;9.90;87.90
84902;DHT22;75166;51.198;6.010;2024-01-30T10:14:44;9.90;87.70
84902;DHT22;75166;51.198;6.010;2024-01-30T10:17:11;9.90;87.70
84902;DHT22;75166;51.198;6.010;2024-01-30T10:19:41;9.90;87.90
84902;DHT22;75166;51.198;6.010;2024-01-30T10:22:07;10.00;87.80
84902;DHT22;75166;51.198;6.010;2024-01-30T10:24:36;9.90;87.90
84902;DHT22;75166;51.198;6.010;2024-01-30T10:27:02;10.00;88.00
84902;DHT22;75166;51.198;6.010;2024-01-30T10:29:28;10.00;88.00
84902;DHT22;75166;51.198;6.010;2024-01-30T10:32:01;10.00;87.90
84902;DHT22;75166;51.198;6.010;2024-01-30T10:34:28;10.00;88.00
84902;DHT22;75166;51.198;6.010;2024-01-30T10:37:08;10.00;87.90
84902;DHT22;75166;51.198;6.010;2024-01-30T10:39:44;10.10;88.20
84902;DHT22;75166;51.198;6.010;2024-01-30T10:42:15;10.10;88.10
84902;DHT22;75166;51.198;6.010;2024-01-30T10:44:56;10.10;88.10
84902;DHT22;75166;51.198;6.010;2024-01-30T10:47:29;10.10;88.20
84902;DHT22;75166;51.198;6.010;2024-01-30T10:49:56;10.10;88.20
84902;DHT22;75166;51.198;6.010;2024-01-30T10:52:23;10.20;88.30
84902;DHT22;75166;51.198;6.010;2024-01-30T10:54:51;10.20;88.40
84902;DHT22;75166;51.198;6.010;2024-01-30T10:57:18;10.20;88.40
84902;DHT22;75166;51.198;6.010;2024-01-30T10:59:44;10.20;88.20
84902;DHT22;75166;51.198;6.010;2024-01-30T11:02:11;10.20;88.20
84902;DHT22;75166;51.198;6.010;2024-01-30T11:04:42;10.20;88.10
84902;DHT22;75166;51.198;6.010;2024-01-30T11:07:18;10.30;88.30
84902;DHT22;75166;51.198;6.010;2024-01-30T11:10:12;10.30;88.40
84902;DHT22;75166;51.198;6.010;2024-01-30T11:12:40;10.30;89.30
84902;DHT22;75166;51.198;6.010;2024-01-30T11:20:35;10.40;88.40
84902;DHT22;75166;51.198;6.010;2024-01-30T11:23:11;10.40;89.10
84902;DHT22;75166;51.198;6.010;2024-01-30T11:25:37;10.40;88.40
84902;DHT22;75166;51.198;6.010;2024-01-30T11:28:03;10.40;88.40
84902;DHT22;75166;51.198;6.010;2024-01-30T11:30:30;10.40;88.40
84902;DHT22;75166;51.198;6.010;2024-01-30T11:33:06;10.40;88.40
84902;DHT22;75166;51.198;6.010;2024-01-30T11:35:33;10.50;88.50
84902;DHT22;75166;51.198;6.010;2024-01-30T11:38:00;10.50;88.60
84902;DHT22;75166;51.198;6.010;2024-01-30T11:40:30;10.50;88.60
84902;DHT22;75166;51.198;6.010;2024-01-30T11:42:58;10.50;88.40
84902;DHT22;75166;51.198;6.010;2024-01-30T11:45:24;10.60;88.60
84902;DHT22;75166;51.198;6.010;2024-01-30T11:47:50;10.60;88.40
84902;DHT22;75166;51.198;6.010;2024-01-30T11:50:16;10.60;88.40
84902;DHT22;75166;51.198;6.010;2024-01-30T11:52:42;10.60;88.40
84902;DHT22;75166;51.198;6.010;2024-01-30T11:55:09;10.60;88.50
84902;DHT22;75166;51.198;6.010;2024-01-30T11:57:35;10.70;88.60
84902;DHT22;75166;51.198;6.010;2024-01-30T12:00:05;10.70;88.50
84902;DHT22;75166;51.198;6.010;2024-01-30T12:02:41;10.70;88.70
84902;DHT22;75166;51.198;6.010;2024-01-30T12:05:07;10.70;88.50
84902;DHT22;75166;51.198;6.010;2024-01-30T12:07:33;10.70;88.50
84902;DHT22;75166;51.198;6.010;2024-01-30T12:09:59;10.70;88.50
84902;DHT22;75166;51.198;6.010;2024-01-30T12:12:26;10.70;88.20
84902;DHT22;75166;51.198;6.010;2024-01-30T12:14:52;10.80;88.30
84902;DHT22;75166;51.198;6.010;2024-01-30T12:17:44;10.80;88.10
84902;DHT22;75166;51.198;6.010;2024-01-30T12:20:14;10.80;88.00
84902;DHT22;75166;51.198;6.010;2024-01-30T12:22:41;10.80;87.90
84902;DHT22;75166;51.198;6.010;2024-01-30T12:25:09;10.80;87.80
84902;DHT22;75166;51.198;6.010;2024-01-30T12:27:39;10.70;87.80
84902;DHT22;75166;51.198;6.010;2024-01-30T12:30:09;10.80;87.80
84902;DHT22;75166;51.198;6.010;2024-01-30T12:32:39;10.70;87.80
84902;DHT22;75166;51.198;6.010;2024-01-30T12:35:13;10.70;87.70
84902;DHT22;75166;51.198;6.010;2024-01-30T12:37:39;10.70;87.70
84902;DHT22;75166;51.198;6.010;2024-01-30T12:40:06;10.70;87.80
84902;DHT22;75166;51.198;6.010;2024-01-30T12:42:32;10.70;87.80
84902;DHT22;75166;51.198;6.010;2024-01-30T12:44:58;10.70;87.70
84902;DHT22;75166;51.198;6.010;2024-01-30T12:47:24;10.70;87.60
84902;DHT22;75166;51.198;6.010;2024-01-30T12:49:52;10.80;87.60
84902;DHT22;75166;51.198;6.010;2024-01-30T12:52:19;10.80;87.50
84902;DHT22;75166;51.198;6.010;2024-01-30T12:54:45;10.80;87.60
84902;DHT22;75166;51.198;6.010;2024-01-30T12:57:11;10.80;87.60
84902;DHT22;75166;51.198;6.010;2024-01-30T12:59:37;10.80;87.50
84902;DHT22;75166;51.198;6.010;2024-01-30T13:02:03;10.80;87.40
84902;DHT22;75166;51.198;6.010;2024-01-30T13:04:29;10.80;87.30
84902;DHT22;75166;51.198;6.010;2024-01-30T13:06:55;10.80;87.20
84902;DHT22;75166;51.198;6.010;2024-01-30T13:09:20;10.80;87.20
84902;DHT22;75166;51.198;6.010;2024-01-30T13:11:46;10.80;87.20
84902;DHT22;75166;51.198;6.010;2024-01-30T13:14:12;10.80;87.10
84902;DHT22;75166;51.198;6.010;2024-01-30T13:16:37;10.80;87.10
84902;DHT22;75166;51.198;6.010;2024-01-30T13:19:03;10.80;87.00
84902;DHT22;75166;51.198;6.010;2024-01-30T13:21:30;10.80;86.90
84902;DHT22;75166;51.198;6.010;2024-01-30T13:23:55;10.80;86.80
84902;DHT22;75166;51.198;6.010;2024-01-30T13:26:21;10.80;86.70
84902;DHT22;75166;51.198;6.010;2024-01-30T13:28:47;10.80;86.70
84902;DHT22;75166;51.198;6.010;2024-01-30T13:31:14;10.80;86.60
84902;DHT22;75166;51.198;6.010;2024-01-30T13:33:40;10.80;86.50
84902;DHT22;75166;51.198;6.010;2024-01-30T13:36:07;10.80;86.50
84902;DHT22;75166;51.198;6.010;2024-01-30T13:38:33;10.80;86.80
84902;DHT22;75166;51.198;6.010;2024-01-30T13:40:59;10.90;87.00
84902;DHT22;75166;51.198;6.010;2024-01-30T13:43:25;10.80;86.70
84902;DHT22;75166;51.198;6.010;2024-01-30T13:45:50;10.80;86.40
84902;DHT22;75166;51.198;6.010;2024-01-30T13:48:16;10.80;86.30
84902;DHT22;75166;51.198;6.010;2024-01-30T13:50:42;10.80;86.00
84902;DHT22;75166;51.198;6.010;2024-01-30T13:53:07;10.80;86.00
84902;DHT22;75166;51.198;6.010;2024-01-30T13:55:34;10.90;85.90
84902;DHT22;75166;51.198;6.010;2024-01-30T13:58:00;10.90;85.80
84902;DHT22;75166;51.198;6.010;2024-01-30T14:00:27;10.90;85.40
84902;DHT22;75166;51.198;6.010;2024-01-30T14:02:52;10.90;85.20
84902;DHT22;75166;51.198;6.010;2024-01-30T14:05:20;10.90;85.00
84902;DHT22;75166;51.198;6.010;2024-01-30T14:07:47;10.90;84.70
84902;DHT22;75166;51.198;6.010;2024-01-30T14:10:12;10.90;84.40
84902;DHT22;75166;51.198;6.010;2024-01-30T14:12:38;10.90;84.10
84902;DHT22;75166;51.198;6.010;2024-01-30T14:15:04;10.90;83.90
84902;DHT22;75166;51.198;6.010;2024-01-30T14:17:30;10.90;83.70
84902;DHT22;75166;51.198;6.010;2024-01-30T14:19:56;10.90;83.60
84902;DHT22;75166;51.198;6.010;2024-01-30T14:22:22;10.90;83.50
84902;DHT22;75166;51.198;6.010;2024-01-30T14:24:47;10.90;83.30
84902;DHT22;75166;51.198;6.010;2024-01-30T14:27:13;11.00;83.30
84902;DHT22;75166;51.198;6.010;2024-01-30T14:29:39;10.90;82.90
84902;DHT22;75166;51.198;6.010;2024-01-30T14:32:05;10.90;82.70
84902;DHT22;75166;51.198;6.010;2024-01-30T14:34:30;11.00;82.90
84902;DHT22;75166;51.198;6.010;2024-01-30T14:36:56;11.00;83.00
84902;DHT22;75166;51.198;6.010;2024-01-30T14:39:22;11.00;82.70
84902;DHT22;75166;51.198;6.010;2024-01-30T14:41:47;11.00;82.40
84902;DHT22;75166;51.198;6.010;2024-01-30T14:44:13;11.00;82.00
84902;DHT22;75166;51.198;6.010;2024-01-30T14:46:39;11.00;81.60
84902;DHT22;75166;51.198;6.010;2024-01-30T14:49:05;11.00;81.90
84902;DHT22;75166;51.198;6.010;2024-01-30T14:51:32;11.00;81.60
84902;DHT22;75166;51.198;6.010;2024-01-30T14:53:59;11.00;81.40
84902;DHT22;75166;51.198;6.010;2024-01-30T14:56:25;11.00;81.10
84902;DHT22;75166;51.198;6.010;2024-01-30T14:58:51;11.00;80.70
84902;DHT22;75166;51.198;6.010;2024-01-30T15:01:16;11.10;80.30
84902;DHT22;75166;51.198;6.010;2024-01-30T15:03:42;11.10;80.10
84902;DHT22;75166;51.198;6.010;2024-01-30T15:06:09;11.10;80.10
84902;DHT22;75166;51.198;6.010;2024-01-30T15:08:34;11.10;80.00
84902;DHT22;75166;51.198;6.010;2024-01-30T15:11:00;11.10;79.80
84902;DHT22;75166;51.198;6.010;2024-01-30T15:13:26;11.10;80.50
84902;DHT22;75166;51.198;6.010;2024-01-30T15:15:51;11.10;79.10
84902;DHT22;75166;51.198;6.010;2024-01-30T15:18:17;11.10;78.30
84902;DHT22;75166;51.198;6.010;2024-01-30T15:20:43;11.10;78.00
84902;DHT22;75166;51.198;6.010;2024-01-30T15:23:08;11.10;77.00
84902;DHT22;75166;51.198;6.010;2024-01-30T15:25:34;11.10;76.60
84902;DHT22;75166;51.198;6.010;2024-01-30T15:28:00;11.10;76.20
84902;DHT22;75166;51.198;6.010;2024-01-30T15:30:25;11.10;76.00
84902;DHT22;75166;51.198;6.010;2024-01-30T15:32:51;11.10;75.60
84902;DHT22;75166;51.198;6.010;2024-01-30T15:35:16;11.10;75.40
84902;DHT22;75166;51.198;6.010;2024-01-30T15:37:42;11.10;75.40
84902;DHT22;75166;51.198;6.010;2024-01-30T15:40:08;11.00;75.40